Itaja, Brazil
Current Conditions -  °F | °C
As of 8:00 AM on Sunday 23 Nov 2014 (Local Time) from SBSR Reporting Station
Haze Haze  
Wind Chill: 72°   Ceiling: 900
Heat Index: 72°   Visibility: 2.5mi
Dew Point: 66°   Wind: 5mph
Humidity: 83%   Direction: 180°S
Pressure: 29.97"   Gusts: NA
Location:  19.07°S, 51.54°W
Report Text: SBSR 231000Z 18004KT 4000 BR BKN009 BKN015 OVC070 22/19 Q1015
Loading
Personal Weather Stations






























Interactive Weather Map New forecast layout! Learn more

10-Day Weather Forecast

Advertisements
Track Severe Weather on mobile